Time;durP1;ratioP1;P1;durP2;ratioP2;P2;SDS_P1;SDS_P2;PMS_P1;PMS_P2;Temp;Humidity;BMP_temperature;BMP_pressure;BME280_temperature;BME280_humidity;BME280_pressure;Samples;Min_cycle;Max_cycle;Signal;HPM_P1;HPM_P2
2021/11/27 00:00:46;;;;;;;;;2.00;2.00;;;;;21.23;34.65;98531.13;5000717;28;50964;-49
2021/11/27 00:03:12;;;;;;;;;2.00;2.00;;;;;21.28;34.15;98533.06;5010156;27;51229;-50
2021/11/27 00:05:39;;;;;;;;;1.75;1.75;;;;;21.30;34.31;98542.69;4994709;28;51524;-46
2021/11/27 00:08:07;;;;;;;;;4.00;1.50;;;;;21.28;34.51;98531.16;5007596;28;51153;-51
2021/11/27 00:10:34;;;;;;;;;4.00;2.25;;;;;21.28;34.63;98533.06;5004644;28;51400;-48
2021/11/27 00:13:01;;;;;;;;;3.25;3.25;;;;;21.24;34.76;98535.53;5003373;28;51008;-49
2021/11/27 00:15:28;;;;;;;;;2.50;2.50;;;;;21.18;35.05;98533.91;4996977;27;51315;-49
2021/11/27 00:17:55;;;;;;;;;2.25;2.25;;;;;21.14;35.04;98532.81;5000931;27;51191;-46
2021/11/27 00:20:24;;;;;;;;;1.50;1.25;;;;;21.10;34.58;98528.16;5000960;28;52402;-48
2021/11/27 00:22:50;;;;;;;;;4.75;2.00;;;;;21.04;34.62;98528.16;5007067;28;51277;-49
2021/11/27 00:25:16;;;;;;;;;1.00;1.00;;;;;20.99;35.08;98519.94;5003851;27;51490;-49
2021/11/27 00:27:42;;;;;;;;;4.00;3.00;;;;;20.96;34.93;98537.03;5014396;27;51085;-51
2021/11/27 00:30:12;;;;;;;;;2.25;2.25;;;;;20.92;34.50;98529.59;5001189;28;51362;-51
2021/11/27 00:32:38;;;;;;;;;2.00;2.00;;;;;20.84;34.70;98527.41;5003322;28;52019;-51
2021/11/27 00:35:05;;;;;;;;;1.50;1.50;;;;;20.82;34.81;98530.47;5005940;28;51143;-49
2021/11/27 00:37:30;;;;;;;;;2.00;2.00;;;;;20.77;35.12;98532.41;5002586;28;51061;-48
2021/11/27 00:39:56;;;;;;;;;2.50;2.00;;;;;20.72;35.14;98525.81;5041191;27;51158;-50
2021/11/27 00:42:21;;;;;;;;;3.50;2.50;;;;;20.68;34.96;98527.47;5001495;28;51125;-49
2021/11/27 00:44:47;;;;;;;;;4.00;2.00;;;;;20.64;34.82;98529.16;4997005;28;50921;-51
2021/11/27 00:47:12;;;;;;;;;4.75;2.75;;;;;20.60;35.09;98530.78;5010506;27;51458;-48
2021/11/27 00:49:38;;;;;;;;;6.00;2.25;;;;;20.55;34.86;98528.06;5001448;27;51158;-48
2021/11/27 00:52:04;;;;;;;;;3.00;2.75;;;;;20.52;34.99;98525.84;4999738;27;51080;-47
2021/11/27 00:54:30;;;;;;;;;1.25;1.25;;;;;20.47;35.19;98528.63;4987774;28;51093;-49
2021/11/27 00:56:55;;;;;;;;;1.00;1.00;;;;;20.45;35.10;98544.59;4998810;27;51143;-50
2021/11/27 00:59:20;;;;;;;;;1.00;1.00;;;;;20.41;34.97;98543.44;5004009;28;51064;-47
2021/11/27 01:01:47;;;;;;;;;3.00;2.50;;;;;20.37;35.44;98548.69;5005088;28;51097;-49
2021/11/27 01:04:13;;;;;;;;;2.00;1.00;;;;;20.33;34.92;98544.03;5006481;28;51261;-48
2021/11/27 01:06:39;;;;;;;;;2.00;2.00;;;;;20.32;35.43;98558.84;5008930;28;51538;-49
2021/11/27 01:09:12;;;;;;;;;2.00;2.00;;;;;20.29;35.12;98553.91;5009605;28;51410;-48
2021/11/27 01:11:42;;;;;;;;;2.75;2.75;;;;;20.25;35.34;98537.16;5006570;28;51903;-47
2021/11/27 01:14:14;;;;;;;;;3.00;2.50;;;;;20.23;35.14;98533.03;4995817;28;51128;-47
2021/11/27 01:16:42;;;;;;;;;2.00;2.00;;;;;20.19;35.15;98524.50;5027544;27;51130;-51
2021/11/27 01:19:09;;;;;;;;;3.00;2.00;;;;;20.16;35.34;98517.63;5019406;27;51394;-47
2021/11/27 01:21:38;;;;;;;;;3.50;1.75;;;;;20.14;35.42;98525.34;5010788;27;52434;-46
2021/11/27 01:24:07;;;;;;;;;1.75;1.75;;;;;20.11;35.12;98517.66;5003184;28;52401;-49
2021/11/27 01:26:34;;;;;;;;;3.00;2.00;;;;;20.09;35.52;98508.00;5015533;28;51073;-52
2021/11/27 01:29:00;;;;;;;;;5.00;2.00;;;;;20.06;35.60;98506.66;5010176;28;51172;-51
2021/11/27 01:31:26;;;;;;;;;2.00;2.00;;;;;20.04;35.43;98503.34;5023239;27;51920;-49
2021/11/27 01:33:51;;;;;;;;;1.00;1.00;;;;;20.02;35.48;98493.75;5020277;27;51223;-51
2021/11/27 01:36:17;;;;;;;;;1.00;1.00;;;;;19.99;35.37;98506.09;5003318;28;51188;-49
2021/11/27 01:38:43;;;;;;;;;1.00;1.00;;;;;19.98;35.62;98501.69;5006150;28;51159;-48
2021/11/27 01:41:09;;;;;;;;;3.75;1.25;;;;;19.97;35.45;98510.22;5005181;27;52062;-48
2021/11/27 01:43:36;;;;;;;;;3.00;2.00;;;;;19.94;35.66;98508.84;5003608;28;50975;-49
2021/11/27 01:46:03;;;;;;;;;1.00;1.00;;;;;19.92;35.39;98499.25;5010428;27;51489;-49
2021/11/27 01:48:29;;;;;;;;;2.25;1.00;;;;;19.89;35.39;98495.91;5001453;28;51646;-49
2021/11/27 01:51:01;;;;;;;;;3.00;2.00;;;;;19.87;35.58;98498.13;5008185;28;51301;-51
2021/11/27 01:53:28;;;;;;;;;1.00;1.00;;;;;19.86;35.39;98509.38;5010960;27;51261;-48
2021/11/27 01:55:57;;;;;;;;;4.00;1.75;;;;;19.84;35.74;98508.84;5027724;27;51050;-46
2021/11/27 01:58:23;;;;;;;;;1.75;1.00;;;;;19.83;35.84;98510.78;5026674;27;51497;-47
2021/11/27 02:00:52;;;;;;;;;1.50;1.50;;;;;19.81;35.42;98503.91;5010290;28;50989;-49
2021/11/27 02:03:18;;;;;;;;;1.75;1.75;;;;;19.78;35.70;98501.69;5008462;27;51315;-51
2021/11/27 02:05:43;;;;;;;;;0.50;0.50;;;;;19.76;35.62;98504.72;5005011;28;51128;-49
2021/11/27 02:08:09;;;;;;;;;1.00;1.00;;;;;19.75;35.69;98502.25;5006754;28;51531;-50
2021/11/27 02:10:34;;;;;;;;;0.75;0.75;;;;;19.73;35.55;98501.69;5003006;28;51774;-46
2021/11/27 02:13:00;;;;;;;;;0.00;0.00;;;;;19.72;35.80;98500.88;5016662;27;51198;-49
2021/11/27 02:15:26;;;;;;;;;2.50;2.00;;;;;19.69;35.82;98492.34;5007271;28;51181;-50
2021/11/27 02:17:51;;;;;;;;;2.50;2.00;;;;;19.70;35.86;98502.25;5016655;27;51389;-50
2021/11/27 02:20:17;;;;;;;;;1.00;0.75;;;;;19.67;36.00;98498.09;5003215;28;51893;-51
2021/11/27 02:22:43;;;;;;;;;0.50;0.50;;;;;19.66;35.69;98498.38;5005865;27;51414;-51
2021/11/27 02:25:15;;;;;;;;;2.00;1.00;;;;;19.65;35.68;98496.75;5004944;28;50928;-48
2021/11/27 02:27:46;;;;;;;;;1.00;1.00;;;;;19.62;35.97;98487.13;5013647;28;51056;-49
2021/11/27 02:30:13;;;;;;;;;1.00;1.00;;;;;19.60;35.78;98481.91;5047462;27;51164;-47
2021/11/27 02:32:39;;;;;;;;;0.00;0.00;;;;;19.60;35.77;98475.59;5038070;27;51170;-46
2021/11/27 02:35:05;;;;;;;;;1.50;1.00;;;;;19.55;35.91;98462.69;4995756;28;51234;-50
2021/11/27 02:37:31;;;;;;;;;0.25;0.25;;;;;19.56;35.85;98472.56;5004768;28;51226;-50
2021/11/27 02:39:56;;;;;;;;;0.75;0.75;;;;;19.55;36.03;98473.66;5003938;27;51055;-51
2021/11/27 02:42:23;;;;;;;;;0.50;0.50;;;;;19.54;35.81;98462.91;4995119;27;51026;-50
2021/11/27 02:44:48;;;;;;;;;1.00;1.00;;;;;19.53;36.11;98469.50;5006239;27;51092;-49
2021/11/27 02:47:14;;;;;;;;;0.00;0.00;;;;;19.51;35.97;98458.81;5041715;27;51335;-47
2021/11/27 02:49:39;;;;;;;;;2.50;0.75;;;;;19.49;35.78;98452.78;5002873;28;51806;-51
2021/11/27 02:52:05;;;;;;;;;0.75;0.75;;;;;19.48;35.52;98453.84;4997008;27;51032;-46
2021/11/27 02:54:32;;;;;;;;;0.00;0.00;;;;;19.46;35.69;98453.28;5004522;28;50968;-45
2021/11/27 02:56:58;;;;;;;;;0.75;0.75;;;;;19.46;36.02;98455.22;5020182;27;51107;-48
2021/11/27 02:59:27;;;;;;;;;1.75;0.75;;;;;19.46;36.10;98456.03;5007368;28;52024;-47
2021/11/27 03:01:56;;;;;;;;;1.00;0.00;;;;;19.43;35.96;98451.09;4998577;27;51162;-47
2021/11/27 03:04:22;;;;;;;;;1.00;0.00;;;;;19.43;35.85;98448.34;5011844;28;51059;-47
2021/11/27 03:06:48;;;;;;;;;0.75;0.75;;;;;19.41;36.04;98445.06;5014056;27;51254;-48
2021/11/27 03:09:16;;;;;;;;;0.75;0.50;;;;;19.41;35.82;98438.75;5010319;27;51654;-45
2021/11/27 03:11:42;;;;;;;;;0.25;0.25;;;;;19.40;36.04;98429.69;4997383;27;51321;-47
2021/11/27 03:14:08;;;;;;;;;1.75;1.00;;;;;19.39;36.15;98433.53;5003370;28;51092;-46
2021/11/27 03:16:34;;;;;;;;;0.75;0.75;;;;;19.38;36.17;98442.84;5004566;28;51181;-48
2021/11/27 03:19:00;;;;;;;;;0.75;0.75;;;;;19.38;36.07;98434.59;5005762;28;51683;-46
2021/11/27 03:21:26;;;;;;;;;0.00;0.00;;;;;19.37;35.97;98437.63;5009713;28;51098;-49
2021/11/27 03:23:52;;;;;;;;;0.00;0.00;;;;;19.36;36.04;98427.75;5029444;27;51148;-48
2021/11/27 03:26:18;;;;;;;;;0.00;0.00;;;;;19.35;35.83;98428.84;5005984;28;51212;-46
2021/11/27 03:28:45;;;;;;;;;1.25;1.25;;;;;19.33;36.14;98427.19;5018856;27;53876;-51
2021/11/27 03:31:11;;;;;;;;;1.00;1.00;;;;;19.33;36.25;98431.88;5001144;28;51073;-51
2021/11/27 03:33:37;;;;;;;;;1.75;0.00;;;;;19.31;36.08;98423.91;5001357;28;50985;-47
2021/11/27 03:36:04;;;;;;;;;0.00;0.00;;;;;19.31;36.09;98425.84;5008848;28;51424;-50
2021/11/27 03:38:30;;;;;;;;;0.00;0.00;;;;;19.30;36.03;98430.50;5005090;28;51159;-49
2021/11/27 03:40:55;;;;;;;;;0.00;0.00;;;;;19.28;36.10;98424.47;5014112;27;51466;-50
2021/11/27 03:43:21;;;;;;;;;0.75;0.75;;;;;19.28;36.03;98415.41;5001242;28;51100;-46
2021/11/27 03:45:47;;;;;;;;;0.00;0.00;;;;;19.27;36.44;98408.25;4992503;28;51073;-46
2021/11/27 03:48:16;;;;;;;;;0.50;0.50;;;;;19.25;36.21;98408.53;5003736;28;51160;-48
2021/11/27 03:50:48;;;;;;;;;1.00;0.00;;;;;19.25;36.27;98404.94;5000306;28;51214;-48
2021/11/27 03:53:18;;;;;;;;;0.25;0.00;;;;;19.24;36.25;98404.13;5002988;28;52539;-47
2021/11/27 03:55:44;;;;;;;;;0.00;0.00;;;;;19.23;36.18;98397.00;4999392;27;51255;-51
2021/11/27 03:58:10;;;;;;;;;0.00;0.00;;;;;19.23;36.26;98396.19;5006232;28;50941;-50
2021/11/27 04:00:37;;;;;;;;;0.75;0.75;;;;;19.20;35.90;98392.06;5031116;27;51050;-47
2021/11/27 04:03:05;;;;;;;;;0.00;0.00;;;;;19.19;36.10;98378.63;5004868;28;51079;-49
2021/11/27 04:05:31;;;;;;;;;0.00;0.00;;;;;19.19;36.18;98384.94;5022696;27;51098;-47
2021/11/27 04:07:58;;;;;;;;;2.00;0.00;;;;;19.18;36.04;98380.53;5007040;28;51520;-47
2021/11/27 04:10:25;;;;;;;;;0.00;0.00;;;;;19.16;36.20;98382.72;5004278;28;51103;-48
2021/11/27 04:12:51;;;;;;;;;2.50;1.00;;;;;19.15;36.20;98378.31;5007233;27;51273;-48
2021/11/27 04:15:16;;;;;;;;;0.00;0.00;;;;;19.14;36.14;98384.91;5007228;27;51348;-46
2021/11/27 04:17:42;;;;;;;;;0.00;0.00;;;;;19.14;35.98;98378.59;5001744;27;51075;-47
2021/11/27 04:20:08;;;;;;;;;0.00;0.00;;;;;19.13;36.22;98369.53;5004469;27;50987;-47
2021/11/27 04:22:33;;;;;;;;;1.00;1.00;;;;;19.12;36.29;98353.34;4982938;28;51251;-46
2021/11/27 04:24:58;;;;;;;;;0.00;0.00;;;;;19.12;36.24;98356.09;4978762;28;51468;-45
2021/11/27 04:27:24;;;;;;;;;2.00;0.00;;;;;19.10;36.65;98352.81;4982419;28;51106;-47
2021/11/27 04:29:49;;;;;;;;;0.00;0.00;;;;;19.08;36.33;98353.09;4978896;27;50954;-47
2021/11/27 04:32:15;;;;;;;;;1.00;1.00;;;;;19.08;36.20;98364.06;4998627;27;51390;-49
2021/11/27 04:34:40;;;;;;;;;0.50;0.50;;;;;19.08;36.40;98363.25;4998197;27;51803;-48
2021/11/27 04:37:10;;;;;;;;;0.00;0.00;;;;;19.05;36.18;98364.59;4987220;27;51129;-50
2021/11/27 04:39:36;;;;;;;;;2.00;1.00;;;;;19.05;36.29;98359.09;4982402;28;52520;-48
2021/11/27 04:42:02;;;;;;;;;0.00;0.00;;;;;19.04;36.09;98358.28;4980053;28;51205;-46
2021/11/27 04:44:27;;;;;;;;;0.00;0.00;;;;;19.03;36.21;98364.84;4986094;28;51076;-47
2021/11/27 04:46:52;;;;;;;;;0.00;0.00;;;;;19.02;36.26;98365.13;4982325;28;51342;-46
2021/11/27 04:49:18;;;;;;;;;0.00;0.00;;;;;19.02;36.19;98359.66;4993791;27;51324;-46
2021/11/27 04:51:43;;;;;;;;;0.00;0.00;;;;;19.01;36.19;98369.81;5022716;27;51650;-49
2021/11/27 04:54:08;;;;;;;;;0.00;0.00;;;;;19.00;36.20;98365.41;5026137;27;51134;-49
2021/11/27 04:56:34;;;;;;;;;0.75;0.00;;;;;18.99;36.27;98380.22;4983470;28;51090;-52
2021/11/27 04:58:59;;;;;;;;;0.50;0.50;;;;;18.99;36.54;98372.00;4998461;28;51153;-47
2021/11/27 05:01:26;;;;;;;;;0.00;0.00;;;;;18.98;36.26;98372.28;4980358;28;51226;-46
2021/11/27 05:03:51;;;;;;;;;0.00;0.00;;;;;18.96;36.29;98372.53;4978761;28;51238;-46
2021/11/27 05:06:17;;;;;;;;;1.00;0.00;;;;;18.95;36.49;98368.13;4983929;27;51080;-45
2021/11/27 05:08:42;;;;;;;;;1.00;0.00;;;;;18.94;36.23;98366.50;4989914;28;51181;-50
2021/11/27 05:11:07;;;;;;;;;0.00;0.00;;;;;18.95;36.31;98373.63;4982997;28;51256;-47
2021/11/27 05:13:33;;;;;;;;;0.00;0.00;;;;;18.93;36.42;98367.59;4990155;28;51188;-50
2021/11/27 05:15:58;;;;;;;;;0.00;0.00;;;;;18.93;36.33;98362.09;5000376;28;51214;-47
2021/11/27 05:18:23;;;;;;;;;0.75;0.00;;;;;18.91;36.41;98353.31;4998402;27;51107;-45
2021/11/27 05:20:49;;;;;;;;;0.00;0.00;;;;;18.91;36.27;98356.06;5011394;28;51068;-51
2021/11/27 05:23:14;;;;;;;;;0.00;0.00;;;;;18.90;36.27;98340.72;5001943;27;51275;-50
2021/11/27 05:25:40;;;;;;;;;0.00;0.00;;;;;18.88;36.35;98342.91;5007587;28;51222;-52
2021/11/27 05:28:05;;;;;;;;;0.25;0.00;;;;;18.88;36.26;98337.41;5011844;28;51137;-50
2021/11/27 05:30:31;;;;;;;;;1.25;0.00;;;;;18.88;36.24;98329.19;5005248;27;51017;-49
2021/11/27 05:35:25;;;;;;;;;1.00;1.00;;;;;18.86;36.36;98309.44;5003243;28;51392;-52
2021/11/27 05:37:51;;;;;;;;;0.00;0.00;;;;;18.86;36.33;98305.84;5002160;27;51231;-52
2021/11/27 05:40:16;;;;;;;;;0.00;0.00;;;;;18.84;36.32;98306.13;5007722;28;51933;-48
2021/11/27 05:42:43;;;;;;;;;1.50;0.00;;;;;18.81;36.17;98303.94;5013096;27;51314;-49
2021/11/27 05:45:09;;;;;;;;;0.00;0.00;;;;;18.82;36.27;98311.06;5009674;28;51742;-51
2021/11/27 05:47:34;;;;;;;;;0.00;0.00;;;;;18.81;36.31;98309.41;5002961;28;51185;-51
2021/11/27 05:50:00;;;;;;;;;0.00;0.00;;;;;18.81;36.34;98314.91;4999230;28;51284;-50
2021/11/27 05:52:26;;;;;;;;;0.00;0.00;;;;;18.81;36.28;98308.59;5008465;28;51353;-49
2021/11/27 05:54:51;;;;;;;;;0.25;0.00;;;;;18.79;36.19;98303.38;5006325;28;51698;-52
2021/11/27 05:57:16;;;;;;;;;0.00;0.00;;;;;18.79;36.49;98308.88;4998954;28;51081;-49
2021/11/27 05:59:42;;;;;;;;;2.25;0.00;;;;;18.78;36.32;98318.19;5016971;27;51296;-49
2021/11/27 06:02:07;;;;;;;;;0.00;0.00;;;;;18.78;36.49;98320.94;5009967;27;51076;-51
2021/11/27 06:04:33;;;;;;;;;0.00;0.00;;;;;18.77;36.48;98324.78;5005481;28;53692;-50
2021/11/27 06:06:58;;;;;;;;;0.25;0.25;;;;;18.75;36.45;98318.72;5009581;27;51204;-47
2021/11/27 06:09:24;;;;;;;;;0.00;0.00;;;;;18.75;36.39;98315.97;5003379;28;51093;-50
2021/11/27 06:11:50;;;;;;;;;0.00;0.00;;;;;18.74;36.18;98314.34;5005141;28;51154;-52
2021/11/27 06:14:15;;;;;;;;;0.00;0.00;;;;;18.74;36.43;98317.06;4983222;28;53088;-51
2021/11/27 06:16:41;;;;;;;;;0.00;0.00;;;;;18.73;36.49;98313.50;5004930;28;51708;-47
2021/11/27 06:19:06;;;;;;;;;0.00;0.00;;;;;18.73;36.53;98312.69;5014320;27;51205;-47
2021/11/27 06:21:32;;;;;;;;;0.75;0.00;;;;;18.72;36.37;98311.03;5012366;27;51225;-51
2021/11/27 06:23:57;;;;;;;;;0.00;0.00;;;;;18.72;36.47;98305.56;5006492;27;50994;-50
2021/11/27 06:26:23;;;;;;;;;0.00;0.00;;;;;18.71;36.23;98312.13;5006001;28;51173;-48
2021/11/27 06:28:49;;;;;;;;;0.00;0.00;;;;;18.68;36.31;98301.72;5007224;28;50985;-50
2021/11/27 06:31:16;;;;;;;;;0.75;0.00;;;;;18.68;36.57;98299.81;5004517;28;51870;-52
2021/11/27 06:33:41;;;;;;;;;0.00;0.00;;;;;18.68;36.53;98307.22;5012376;27;51806;-50
2021/11/27 06:36:07;;;;;;;;;2.00;0.00;;;;;18.67;36.28;98309.13;5005738;27;51120;-49
2021/11/27 06:38:33;;;;;;;;;1.00;1.00;;;;;18.65;36.22;98305.00;5010393;27;51076;-46
2021/11/27 06:40:58;;;;;;;;;0.00;0.00;;;;;18.66;36.42;98312.97;5002598;27;51257;-48
2021/11/27 06:43:23;;;;;;;;;0.00;0.00;;;;;18.66;36.66;98312.16;5001872;28;51140;-48
2021/11/27 06:45:49;;;;;;;;;0.00;0.00;;;;;18.65;36.58;98307.72;5008565;27;51054;-49
2021/11/27 06:48:14;;;;;;;;;0.00;0.00;;;;;18.64;36.42;98303.31;4994486;27;51275;-49
2021/11/27 06:50:40;;;;;;;;;0.25;0.00;;;;;18.64;36.52;98303.31;5010050;28;51349;-49
2021/11/27 06:53:05;;;;;;;;;0.00;0.00;;;;;18.64;36.34;98306.06;5006271;28;51198;-48
2021/11/27 06:55:31;;;;;;;;;0.00;0.00;;;;;18.64;36.50;98306.06;4986731;28;51034;-51
2021/11/27 06:57:56;;;;;;;;;0.00;0.00;;;;;18.62;36.60;98298.09;5003361;28;51070;-46
2021/11/27 07:00:21;;;;;;;;;1.00;0.00;;;;;18.62;36.66;98305.50;5011180;28;51086;-47
2021/11/27 07:02:47;;;;;;;;;0.00;0.00;;;;;18.61;36.37;98304.69;5002809;27;51964;-45
2021/11/27 07:05:13;;;;;;;;;0.25;0.00;;;;;18.60;36.50;98296.75;5003966;28;51112;-48
2021/11/27 07:07:38;;;;;;;;;0.00;0.00;;;;;18.60;36.56;98296.75;4995428;28;51716;-45
2021/11/27 07:10:05;;;;;;;;;0.00;0.00;;;;;18.59;36.53;98289.59;5006145;27;51222;-50
2021/11/27 07:12:30;;;;;;;;;0.00;0.00;;;;;18.56;36.33;98287.41;5057454;27;51891;-46
2021/11/27 07:14:56;;;;;;;;;0.00;0.00;;;;;18.58;36.42;98285.22;5004296;27;51027;-50
2021/11/27 07:17:21;;;;;;;;;0.00;0.00;;;;;18.57;36.29;98292.63;5008257;28;51266;-47
2021/11/27 07:19:47;;;;;;;;;0.00;0.00;;;;;18.56;36.52;98292.91;5024635;27;51322;-47
2021/11/27 07:22:12;;;;;;;;;2.00;0.00;;;;;18.56;36.61;98298.38;4998032;28;51099;-50
2021/11/27 07:24:38;;;;;;;;;2.00;0.00;;;;;18.56;36.42;98306.59;5006311;27;51408;-48
2021/11/27 07:27:06;;;;;;;;;2.00;0.00;;;;;18.56;36.67;98306.59;5000713;27;51557;-49
2021/11/27 07:29:35;;;;;;;;;0.75;0.75;;;;;18.54;36.47;98300.53;5019570;27;51304;-47
2021/11/27 07:32:00;;;;;;;;;0.00;0.00;;;;;18.53;36.71;98301.66;5000477;27;50937;-50
2021/11/27 07:34:26;;;;;;;;;0.00;0.00;;;;;18.53;36.77;98315.34;5014274;27;51043;-50
2021/11/27 07:36:51;;;;;;;;;0.25;0.25;;;;;18.52;36.55;98306.31;5010616;27;51347;-52
2021/11/27 07:39:17;;;;;;;;;0.00;0.00;;;;;18.50;36.96;98303.00;4998607;28;51213;-59
2021/11/27 07:41:42;;;;;;;;;1.00;0.00;;;;;18.50;35.82;98313.97;5007011;28;52340;-50
2021/11/27 07:44:08;;;;;;;;;1.00;0.00;;;;;18.43;34.94;98308.75;5007791;27;51024;-49
2021/11/27 07:46:33;;;;;;;;;0.00;0.00;;;;;18.33;34.92;98327.06;4986360;27;51522;-46
2021/11/27 07:48:59;;;;;;;;;0.00;0.00;;;;;18.23;35.08;98305.09;5001298;28;52349;-51
2021/11/27 07:51:24;;;;;;;;;1.00;0.00;;;;;18.20;35.08;98308.41;5009672;27;51926;-51
2021/11/27 07:53:49;;;;;;;;;2.50;0.00;;;;;18.23;35.11;98308.66;5003001;27;51135;-51
2021/11/27 07:56:15;;;;;;;;;0.25;0.25;;;;;18.29;35.43;98304.88;5001589;28;51209;-50
2021/11/27 07:58:41;;;;;;;;;2.00;0.00;;;;;18.37;35.27;98307.09;5006234;27;51136;-47
2021/11/27 08:01:06;;;;;;;;;2.25;0.00;;;;;18.45;35.34;98301.09;5001497;28;52796;-51
2021/11/27 08:03:32;;;;;;;;;0.00;0.00;;;;;18.54;35.13;98303.28;4997259;27;51168;-52
2021/11/27 08:05:57;;;;;;;;;0.00;0.00;;;;;18.63;35.35;98326.34;5024428;27;51624;-51
2021/11/27 08:08:23;;;;;;;;;0.00;0.00;;;;;18.70;35.40;98322.28;5002897;27;51285;-53
2021/11/27 08:10:48;;;;;;;;;0.00;0.00;;;;;18.79;35.47;98316.28;5000608;27;50997;-51
2021/11/27 08:13:14;;;;;;;;;0.00;0.00;;;;;18.88;35.34;98328.38;5001778;27;51096;-51
2021/11/27 08:15:39;;;;;;;;;1.00;0.00;;;;;18.93;35.09;98306.41;5004848;28;51135;-54
2021/11/27 08:18:04;;;;;;;;;1.00;1.00;;;;;19.01;35.23;98314.09;5005350;27;51092;-52
2021/11/27 08:20:30;;;;;;;;;0.50;0.00;;;;;19.09;35.22;98316.31;5004090;27;51718;-53
2021/11/27 08:22:55;;;;;;;;;0.00;0.00;;;;;19.15;34.99;98308.91;5007251;27;50973;-52
2021/11/27 08:25:21;;;;;;;;;0.00;0.00;;;;;19.21;35.12;98321.53;5003690;28;51125;-55
2021/11/27 08:27:47;;;;;;;;;0.00;0.00;;;;;19.30;35.28;98320.72;5012714;28;51346;-53
2021/11/27 08:30:13;;;;;;;;;0.00;0.00;;;;;19.37;35.14;98314.91;5000312;27;52163;-52
2021/11/27 08:32:39;;;;;;;;;0.00;0.00;;;;;19.43;35.34;98319.31;5010542;27;51462;-52
2021/11/27 08:35:06;;;;;;;;;0.00;0.00;;;;;19.52;35.24;98317.66;5006760;28;51222;-52
2021/11/27 08:37:32;;;;;;;;;0.75;0.00;;;;;19.58;35.41;98321.25;5007154;27;51155;-53
2021/11/27 08:39:59;;;;;;;;;0.00;0.00;;;;;19.65;35.55;98321.78;5010697;28;51057;-52
2021/11/27 08:42:25;;;;;;;;;0.00;0.00;;;;;19.71;35.06;98337.19;5001448;27;51134;-49
2021/11/27 08:44:51;;;;;;;;;0.25;0.25;;;;;19.76;35.70;98331.66;5005113;28;52208;-52
2021/11/27 08:47:18;;;;;;;;;1.00;0.00;;;;;19.84;35.67;98341.25;5000467;27;50949;-53
2021/11/27 08:49:44;;;;;;;;;0.00;0.00;;;;;19.89;35.54;98338.50;5042135;27;52130;-51
2021/11/27 08:52:10;;;;;;;;;0.00;0.00;;;;;19.96;35.67;98336.28;5009895;28;51294;-52
2021/11/27 08:54:36;;;;;;;;;1.00;0.00;;;;;20.01;35.34;98340.94;5004657;28;51319;-52
2021/11/27 08:57:01;;;;;;;;;0.00;0.00;;;;;20.08;35.39;98344.22;5003486;27;51312;-52
2021/11/27 08:59:28;;;;;;;;;0.00;0.00;;;;;20.12;35.19;98340.66;4994724;28;51019;-49
2021/11/27 09:01:53;;;;;;;;;0.00;0.00;;;;;20.19;34.77;98345.81;5003630;28;51290;-52
2021/11/27 09:04:20;;;;;;;;;0.75;0.00;;;;;20.23;35.14;98351.59;5010485;27;51055;-52
2021/11/27 09:06:45;;;;;;;;;0.00;0.00;;;;;20.28;34.91;98348.81;5009584;28;51260;-53
2021/11/27 09:09:11;;;;;;;;;0.00;0.00;;;;;20.32;34.63;98348.00;5036526;27;51115;-49
2021/11/27 09:11:38;;;;;;;;;0.00;0.00;;;;;20.36;34.44;98353.75;5001205;27;52255;-50
2021/11/27 09:14:05;;;;;;;;;0.00;0.00;;;;;20.41;34.22;98345.47;5009674;27;51198;-53
2021/11/27 09:16:31;;;;;;;;;0.00;0.00;;;;;20.44;34.21;98340.28;4997365;27;51296;-51
2021/11/27 09:18:57;;;;;;;;;0.00;0.00;;;;;20.46;34.38;98338.06;5003283;28;51457;-52
2021/11/27 09:21:22;;;;;;;;;0.00;0.00;;;;;20.45;34.35;98339.16;5007324;28;51595;-52
2021/11/27 09:23:48;;;;;;;;;0.25;0.00;;;;;20.44;34.45;98342.19;5008380;28;51257;-52
2021/11/27 09:26:15;;;;;;;;;0.00;0.00;;;;;20.45;34.60;98352.09;4999011;27;51433;-52
2021/11/27 09:28:41;;;;;;;;;0.00;0.00;;;;;20.44;34.61;98353.19;5004559;28;51840;-50
2021/11/27 09:31:07;;;;;;;;;2.00;0.00;;;;;20.42;34.99;98358.97;5005023;28;51176;-49
2021/11/27 09:33:32;;;;;;;;;0.00;0.00;;;;;20.45;35.02;98355.66;4995998;28;51191;-51
2021/11/27 09:36:04;;;;;;;;;1.25;0.00;;;;;20.49;35.09;98361.41;5005952;28;51137;-48
2021/11/27 09:38:31;;;;;;;;;0.00;0.00;;;;;20.52;35.26;98358.09;5003031;28;51371;-51
2021/11/27 09:41:10;;;;;;;;;0.00;0.00;;;;;20.57;35.04;98374.59;4999389;28;51190;-51
2021/11/27 09:43:41;;;;;;;;;0.00;0.00;;;;;20.61;35.01;98370.16;5005397;28;51485;-53
2021/11/27 09:46:07;;;;;;;;;1.00;0.00;;;;;20.61;35.35;98375.66;5003674;28;51230;-52
2021/11/27 09:48:36;;;;;;;;;0.00;0.00;;;;;20.60;35.13;98373.19;5000338;27;51190;-52
2021/11/27 09:51:01;;;;;;;;;0.75;0.00;;;;;20.58;35.32;98378.97;5001627;28;51296;-54
2021/11/27 09:53:27;;;;;;;;;0.00;0.00;;;;;20.58;35.71;98386.41;5003259;27;51237;-52
2021/11/27 09:55:53;;;;;;;;;1.00;0.00;;;;;20.57;35.55;98382.84;5004463;27;51136;-51
2021/11/27 09:58:21;;;;;;;;;0.25;0.00;;;;;20.56;35.98;98389.44;5009227;27;51883;-52
2021/11/27 10:00:48;;;;;;;;;0.50;0.50;;;;;20.56;36.13;98394.94;4987174;27;51348;-51
2021/11/27 10:03:15;;;;;;;;;0.00;0.00;;;;;20.55;35.57;98387.81;5009679;27;51237;-49
2021/11/27 10:05:42;;;;;;;;;0.75;0.75;;;;;20.57;35.78;98385.59;4994456;27;53860;-51
2021/11/27 10:08:10;;;;;;;;;2.00;0.50;;;;;20.60;35.72;98385.00;4998967;27;51159;-50
2021/11/27 10:10:35;;;;;;;;;1.50;0.00;;;;;20.63;36.17;98381.69;4996197;27;51398;-52
2021/11/27 10:13:01;;;;;;;;;0.00;0.00;;;;;20.65;36.31;98390.50;4998925;27;51238;-51
2021/11/27 10:15:27;;;;;;;;;0.00;0.00;;;;;20.66;36.45;98391.34;4997351;27;51319;-50
2021/11/27 10:17:54;;;;;;;;;0.00;0.00;;;;;20.65;36.05;98385.00;5004880;28;54116;-47
2021/11/27 10:20:20;;;;;;;;;0.00;0.00;;;;;20.66;36.21;98388.56;5003698;27;51455;-49
2021/11/27 10:22:48;;;;;;;;;0.00;0.00;;;;;20.64;36.15;98388.03;5004491;27;51068;-53
2021/11/27 10:25:25;;;;;;;;;0.25;0.25;;;;;20.63;35.87;98386.38;4996475;28;51255;-52
2021/11/27 10:27:53;;;;;;;;;2.00;1.00;;;;;20.68;35.91;98391.88;4998725;28;51116;-51
2021/11/27 10:30:20;;;;;;;;;1.00;0.25;;;;;20.71;36.15;98389.34;5002186;27;51002;-52
2021/11/27 10:32:46;;;;;;;;;0.00;0.00;;;;;20.74;35.77;98394.31;5004772;28;52123;-50
2021/11/27 10:35:17;;;;;;;;;2.50;0.75;;;;;20.75;36.62;98393.22;4993841;28;51083;-50
2021/11/27 10:37:46;;;;;;;;;0.00;0.00;;;;;20.74;36.07;98401.75;5003324;28;51762;-50
2021/11/27 10:40:16;;;;;;;;;0.75;0.75;;;;;20.71;36.60;98399.53;5003966;28;51592;-51
2021/11/27 10:42:47;;;;;;;;;0.00;0.00;;;;;20.67;36.27;98393.78;4989081;27;51234;-50
2021/11/27 10:45:31;;;;;;;;;1.00;1.00;;;;;20.67;36.58;98395.72;5000214;28;51563;-48
2021/11/27 10:48:11;;;;;;;;;0.00;0.00;;;;;20.65;36.20;98396.00;5000970;28;51190;-53
2021/11/27 10:50:43;;;;;;;;;1.25;0.50;;;;;20.68;36.43;98397.38;4998919;27;50916;-50
2021/11/27 10:53:11;;;;;;;;;0.25;0.25;;;;;20.69;36.58;98388.81;5006239;28;51038;-49
2021/11/27 10:55:37;;;;;;;;;1.50;1.00;;;;;20.70;36.48;98395.16;4995327;28;51234;-48
2021/11/27 10:58:03;;;;;;;;;0.25;0.25;;;;;20.69;36.91;98404.50;4995512;27;52134;-52
2021/11/27 11:00:34;;;;;;;;;2.75;0.00;;;;;20.67;36.72;98406.72;5006081;27;50973;-51
2021/11/27 11:03:01;;;;;;;;;1.00;1.00;;;;;20.67;36.85;98404.78;4994240;27;51199;-53
2021/11/27 11:05:36;;;;;;;;;1.25;0.00;;;;;20.66;36.75;98403.16;5003218;27;51180;-51
2021/11/27 11:08:03;;;;;;;;;3.75;2.00;;;;;20.68;36.53;98402.88;4975804;28;52141;-51
2021/11/27 11:10:34;;;;;;;;;1.50;1.50;;;;;20.72;36.59;98402.00;5000283;28;51280;-53
2021/11/27 11:13:08;;;;;;;;;1.00;0.75;;;;;20.75;36.71;98398.72;5003366;27;51289;-53
2021/11/27 11:15:39;;;;;;;;;2.00;1.00;;;;;20.75;36.53;98409.72;5003747;28;51074;-53
2021/11/27 11:18:18;;;;;;;;;1.75;1.50;;;;;20.73;36.53;98408.31;4990074;28;51818;-49
2021/11/27 11:20:59;;;;;;;;;0.75;0.75;;;;;20.70;36.78;98398.72;5001043;28;51620;-48
2021/11/27 11:23:33;;;;;;;;;0.75;0.75;;;;;20.66;36.97;98402.34;5003066;28;51110;-48
2021/11/27 11:26:04;;;;;;;;;0.75;0.75;;;;;20.70;36.92;98395.16;4996264;28;51197;-48
2021/11/27 11:28:32;;;;;;;;;0.50;0.00;;;;;20.70;36.61;98406.16;5000549;28;52098;-49
2021/11/27 11:31:04;;;;;;;;;0.75;0.75;;;;;20.69;37.18;98402.56;4985824;28;51336;-52
2021/11/27 11:33:33;;;;;;;;;0.00;0.00;;;;;20.69;36.80;98416.34;5002072;28;51099;-48